sensor_id;sensor_type;location;lat;lon;timestamp;P1;durP1;ratioP1;P2;durP2;ratioP2
49221;SDS011;35047;37.588;-122.048;2024-02-21T00:00:08;0.28;;;0.05;;
49221;SDS011;35047;37.588;-122.048;2024-02-21T00:02:36;0.22;;;0.20;;
49221;SDS011;35047;37.588;-122.048;2024-02-21T00:05:03;2.93;;;0.37;;
49221;SDS011;35047;37.588;-122.048;2024-02-21T00:07:30;1.70;;;0.17;;
49221;SDS011;35047;37.588;-122.048;2024-02-21T00:09:56;0.00;;;0.00;;
49221;SDS011;35047;37.588;-122.048;2024-02-21T00:12:23;0.47;;;0.00;;
49221;SDS011;35047;37.588;-122.048;2024-02-21T00:14:49;1.55;;;0.20;;
49221;SDS011;35047;37.588;-122.048;2024-02-21T00:17:16;0.20;;;0.10;;
49221;SDS011;35047;37.588;-122.048;2024-02-21T00:19:42;2.22;;;0.28;;
49221;SDS011;35047;37.588;-122.048;2024-02-21T00:22:09;0.60;;;0.10;;
49221;SDS011;35047;37.588;-122.048;2024-02-21T00:24:35;0.00;;;0.00;;
49221;SDS011;35047;37.588;-122.048;2024-02-21T00:27:02;0.00;;;0.00;;
49221;SDS011;35047;37.588;-122.048;2024-02-21T00:29:28;0.20;;;0.20;;
49221;SDS011;35047;37.588;-122.048;2024-02-21T00:31:55;1.85;;;0.15;;
49221;SDS011;35047;37.588;-122.048;2024-02-21T00:34:24;0.00;;;0.00;;
49221;SDS011;35047;37.588;-122.048;2024-02-21T00:36:51;0.10;;;0.10;;
49221;SDS011;35047;37.588;-122.048;2024-02-21T00:39:17;0.10;;;0.05;;
49221;SDS011;35047;37.588;-122.048;2024-02-21T00:41:44;0.10;;;0.00;;
49221;SDS011;35047;37.588;-122.048;2024-02-21T00:44:10;0.00;;;0.00;;
49221;SDS011;35047;37.588;-122.048;2024-02-21T00:46:37;6.85;;;0.38;;
49221;SDS011;35047;37.588;-122.048;2024-02-21T00:49:04;0.00;;;0.00;;
49221;SDS011;35047;37.588;-122.048;2024-02-21T00:51:30;0.00;;;0.00;;
49221;SDS011;35047;37.588;-122.048;2024-02-21T00:53:57;0.00;;;0.00;;
49221;SDS011;35047;37.588;-122.048;2024-02-21T00:56:23;0.45;;;0.20;;
49221;SDS011;35047;37.588;-122.048;2024-02-21T00:58:50;0.35;;;0.10;;
49221;SDS011;35047;37.588;-122.048;2024-02-21T01:01:23;0.00;;;0.00;;
49221;SDS011;35047;37.588;-122.048;2024-02-21T01:03:50;0.08;;;0.00;;
49221;SDS011;35047;37.588;-122.048;2024-02-21T01:06:19;0.00;;;0.00;;
49221;SDS011;35047;37.588;-122.048;2024-02-21T01:11:15;0.05;;;0.00;;
49221;SDS011;35047;37.588;-122.048;2024-02-21T01:13:42;0.40;;;0.20;;
49221;SDS011;35047;37.588;-122.048;2024-02-21T01:16:09;0.00;;;0.00;;
49221;SDS011;35047;37.588;-122.048;2024-02-21T01:18:39;0.10;;;0.10;;
49221;SDS011;35047;37.588;-122.048;2024-02-21T01:21:06;0.00;;;0.00;;
49221;SDS011;35047;37.588;-122.048;2024-02-21T01:23:36;0.00;;;0.00;;
49221;SDS011;35047;37.588;-122.048;2024-02-21T01:26:03;0.13;;;0.13;;
49221;SDS011;35047;37.588;-122.048;2024-02-21T01:28:30;0.55;;;0.28;;
49221;SDS011;35047;37.588;-122.048;2024-02-21T01:30:57;0.40;;;0.30;;
49221;SDS011;35047;37.588;-122.048;2024-02-21T01:33:23;2.70;;;0.43;;
49221;SDS011;35047;37.588;-122.048;2024-02-21T01:35:50;0.57;;;0.43;;
49221;SDS011;35047;37.588;-122.048;2024-02-21T01:38:16;0.10;;;0.10;;
49221;SDS011;35047;37.588;-122.048;2024-02-21T01:40:43;0.00;;;0.00;;
49221;SDS011;35047;37.588;-122.048;2024-02-21T01:43:16;0.00;;;0.00;;
49221;SDS011;35047;37.588;-122.048;2024-02-21T01:45:48;3.07;;;0.10;;
49221;SDS011;35047;37.588;-122.048;2024-02-21T01:48:19;0.00;;;0.00;;
49221;SDS011;35047;37.588;-122.048;2024-02-21T01:50:49;0.10;;;0.10;;
49221;SDS011;35047;37.588;-122.048;2024-02-21T01:53:17;0.00;;;0.00;;
49221;SDS011;35047;37.588;-122.048;2024-02-21T01:55:55;0.50;;;0.10;;
49221;SDS011;35047;37.588;-122.048;2024-02-21T01:58:21;0.00;;;0.00;;
49221;SDS011;35047;37.588;-122.048;2024-02-21T02:03:16;0.00;;;0.00;;
49221;SDS011;35047;37.588;-122.048;2024-02-21T02:08:16;0.20;;;0.00;;
49221;SDS011;35047;37.588;-122.048;2024-02-21T02:10:44;0.00;;;0.00;;
49221;SDS011;35047;37.588;-122.048;2024-02-21T02:13:11;0.30;;;0.15;;
49221;SDS011;35047;37.588;-122.048;2024-02-21T02:15:38;2.03;;;0.47;;
49221;SDS011;35047;37.588;-122.048;2024-02-21T02:18:06;1.55;;;0.40;;
49221;SDS011;35047;37.588;-122.048;2024-02-21T02:20:33;0.77;;;0.30;;
49221;SDS011;35047;37.588;-122.048;2024-02-21T02:23:00;0.30;;;0.20;;
49221;SDS011;35047;37.588;-122.048;2024-02-21T02:25:57;0.10;;;0.10;;
49221;SDS011;35047;37.588;-122.048;2024-02-21T02:28:24;2.03;;;0.08;;
49221;SDS011;35047;37.588;-122.048;2024-02-21T02:30:50;0.20;;;0.20;;
49221;SDS011;35047;37.588;-122.048;2024-02-21T02:33:17;0.20;;;0.13;;
49221;SDS011;35047;37.588;-122.048;2024-02-21T02:35:44;8.17;;;0.40;;
49221;SDS011;35047;37.588;-122.048;2024-02-21T02:38:10;0.45;;;0.22;;
49221;SDS011;35047;37.588;-122.048;2024-02-21T02:43:06;2.10;;;0.28;;
49221;SDS011;35047;37.588;-122.048;2024-02-21T02:45:32;0.55;;;0.28;;
49221;SDS011;35047;37.588;-122.048;2024-02-21T02:47:59;0.20;;;0.20;;
49221;SDS011;35047;37.588;-122.048;2024-02-21T02:50:26;0.43;;;0.25;;
49221;SDS011;35047;37.588;-122.048;2024-02-21T02:52:53;1.17;;;0.40;;
49221;SDS011;35047;37.588;-122.048;2024-02-21T02:55:20;0.28;;;0.22;;
49221;SDS011;35047;37.588;-122.048;2024-02-21T02:57:46;0.40;;;0.20;;
49221;SDS011;35047;37.588;-122.048;2024-02-21T03:00:13;0.03;;;0.03;;
49221;SDS011;35047;37.588;-122.048;2024-02-21T03:02:41;0.40;;;0.20;;
49221;SDS011;35047;37.588;-122.048;2024-02-21T03:05:14;3.88;;;0.30;;
49221;SDS011;35047;37.588;-122.048;2024-02-21T03:07:41;0.10;;;0.00;;
49221;SDS011;35047;37.588;-122.048;2024-02-21T03:10:09;0.10;;;0.10;;
49221;SDS011;35047;37.588;-122.048;2024-02-21T03:15:03;2.97;;;0.45;;
49221;SDS011;35047;37.588;-122.048;2024-02-21T03:17:30;0.63;;;0.20;;
49221;SDS011;35047;37.588;-122.048;2024-02-21T03:19:59;0.25;;;0.20;;
49221;SDS011;35047;37.588;-122.048;2024-02-21T03:22:35;0.43;;;0.10;;
49221;SDS011;35047;37.588;-122.048;2024-02-21T03:27:29;1.25;;;0.10;;
49221;SDS011;35047;37.588;-122.048;2024-02-21T03:29:55;0.85;;;0.20;;
49221;SDS011;35047;37.588;-122.048;2024-02-21T03:32:22;0.20;;;0.20;;
49221;SDS011;35047;37.588;-122.048;2024-02-21T03:34:48;0.20;;;0.20;;
49221;SDS011;35047;37.588;-122.048;2024-02-21T03:37:15;1.45;;;0.40;;
49221;SDS011;35047;37.588;-122.048;2024-02-21T03:39:41;1.45;;;0.65;;
49221;SDS011;35047;37.588;-122.048;2024-02-21T03:42:08;2.38;;;0.22;;
49221;SDS011;35047;37.588;-122.048;2024-02-21T03:44:35;0.20;;;0.20;;
49221;SDS011;35047;37.588;-122.048;2024-02-21T03:47:02;0.20;;;0.20;;
49221;SDS011;35047;37.588;-122.048;2024-02-21T03:49:28;0.20;;;0.10;;
49221;SDS011;35047;37.588;-122.048;2024-02-21T03:51:55;0.40;;;0.25;;
49221;SDS011;35047;37.588;-122.048;2024-02-21T03:54:21;4.85;;;0.20;;
49221;SDS011;35047;37.588;-122.048;2024-02-21T03:56:48;3.20;;;0.52;;
49221;SDS011;35047;37.588;-122.048;2024-02-21T03:59:14;1.25;;;0.68;;
49221;SDS011;35047;37.588;-122.048;2024-02-21T04:01:41;2.17;;;0.90;;
49221;SDS011;35047;37.588;-122.048;2024-02-21T04:04:08;1.08;;;0.60;;
49221;SDS011;35047;37.588;-122.048;2024-02-21T04:06:35;1.45;;;0.70;;
49221;SDS011;35047;37.588;-122.048;2024-02-21T04:09:01;0.30;;;0.25;;
49221;SDS011;35047;37.588;-122.048;2024-02-21T04:11:28;1.30;;;0.80;;
49221;SDS011;35047;37.588;-122.048;2024-02-21T04:13:55;3.72;;;0.30;;
49221;SDS011;35047;37.588;-122.048;2024-02-21T04:16:21;1.17;;;0.40;;
49221;SDS011;35047;37.588;-122.048;2024-02-21T04:18:48;2.08;;;0.35;;
49221;SDS011;35047;37.588;-122.048;2024-02-21T04:21:14;2.17;;;0.73;;
49221;SDS011;35047;37.588;-122.048;2024-02-21T04:23:42;0.35;;;0.35;;
49221;SDS011;35047;37.588;-122.048;2024-02-21T04:26:09;0.88;;;0.65;;
49221;SDS011;35047;37.588;-122.048;2024-02-21T04:28:36;0.15;;;0.15;;
49221;SDS011;35047;37.588;-122.048;2024-02-21T04:31:03;3.40;;;0.30;;
49221;SDS011;35047;37.588;-122.048;2024-02-21T04:33:29;2.08;;;0.50;;
49221;SDS011;35047;37.588;-122.048;2024-02-21T04:35:56;0.20;;;0.20;;
49221;SDS011;35047;37.588;-122.048;2024-02-21T04:38:24;0.47;;;0.20;;
49221;SDS011;35047;37.588;-122.048;2024-02-21T04:40:50;2.72;;;0.40;;
49221;SDS011;35047;37.588;-122.048;2024-02-21T04:43:17;3.60;;;0.25;;
49221;SDS011;35047;37.588;-122.048;2024-02-21T04:45:43;0.10;;;0.10;;
49221;SDS011;35047;37.588;-122.048;2024-02-21T04:48:09;0.60;;;0.40;;
49221;SDS011;35047;37.588;-122.048;2024-02-21T04:50:36;0.20;;;0.20;;
49221;SDS011;35047;37.588;-122.048;2024-02-21T04:53:02;0.38;;;0.25;;
49221;SDS011;35047;37.588;-122.048;2024-02-21T04:55:29;0.43;;;0.35;;
49221;SDS011;35047;37.588;-122.048;2024-02-21T04:57:55;0.60;;;0.47;;
49221;SDS011;35047;37.588;-122.048;2024-02-21T05:00:22;0.40;;;0.40;;
49221;SDS011;35047;37.588;-122.048;2024-02-21T05:02:49;0.80;;;0.30;;
49221;SDS011;35047;37.588;-122.048;2024-02-21T05:05:15;0.63;;;0.40;;
49221;SDS011;35047;37.588;-122.048;2024-02-21T05:07:42;0.80;;;0.60;;
49221;SDS011;35047;37.588;-122.048;2024-02-21T05:10:08;1.67;;;0.80;;
49221;SDS011;35047;37.588;-122.048;2024-02-21T05:12:35;0.40;;;0.40;;
49221;SDS011;35047;37.588;-122.048;2024-02-21T05:15:05;0.88;;;0.63;;
49221;SDS011;35047;37.588;-122.048;2024-02-21T05:17:32;0.70;;;0.68;;
49221;SDS011;35047;37.588;-122.048;2024-02-21T05:19:58;0.52;;;0.52;;
49221;SDS011;35047;37.588;-122.048;2024-02-21T05:22:25;0.47;;;0.47;;
49221;SDS011;35047;37.588;-122.048;2024-02-21T05:24:51;1.75;;;0.70;;
49221;SDS011;35047;37.588;-122.048;2024-02-21T05:27:21;1.15;;;0.82;;
49221;SDS011;35047;37.588;-122.048;2024-02-21T05:29:47;0.82;;;0.68;;
49221;SDS011;35047;37.588;-122.048;2024-02-21T05:32:14;2.38;;;0.43;;
49221;SDS011;35047;37.588;-122.048;2024-02-21T05:34:41;0.35;;;0.32;;
49221;SDS011;35047;37.588;-122.048;2024-02-21T05:37:08;1.20;;;0.43;;
49221;SDS011;35047;37.588;-122.048;2024-02-21T05:39:34;0.55;;;0.55;;
49221;SDS011;35047;37.588;-122.048;2024-02-21T05:42:01;2.83;;;0.90;;
49221;SDS011;35047;37.588;-122.048;2024-02-21T05:44:27;1.17;;;0.50;;
49221;SDS011;35047;37.588;-122.048;2024-02-21T05:46:54;0.40;;;0.40;;
49221;SDS011;35047;37.588;-122.048;2024-02-21T05:49:20;1.00;;;0.57;;
49221;SDS011;35047;37.588;-122.048;2024-02-21T05:51:47;0.40;;;0.40;;
49221;SDS011;35047;37.588;-122.048;2024-02-21T05:54:14;4.13;;;0.50;;
49221;SDS011;35047;37.588;-122.048;2024-02-21T05:56:44;0.55;;;0.32;;
49221;SDS011;35047;37.588;-122.048;2024-02-21T05:59:11;0.55;;;0.50;;
49221;SDS011;35047;37.588;-122.048;2024-02-21T06:01:37;1.67;;;0.90;;
49221;SDS011;35047;37.588;-122.048;2024-02-21T06:04:04;1.08;;;0.70;;
49221;SDS011;35047;37.588;-122.048;2024-02-21T06:06:31;1.17;;;0.80;;
49221;SDS011;35047;37.588;-122.048;2024-02-21T06:08:57;0.80;;;0.52;;
49221;SDS011;35047;37.588;-122.048;2024-02-21T06:11:24;2.25;;;1.02;;
49221;SDS011;35047;37.588;-122.048;2024-02-21T06:13:51;2.28;;;1.50;;
49221;SDS011;35047;37.588;-122.048;2024-02-21T06:16:17;0.82;;;0.47;;
49221;SDS011;35047;37.588;-122.048;2024-02-21T06:18:44;2.08;;;0.80;;
49221;SDS011;35047;37.588;-122.048;2024-02-21T06:21:10;0.57;;;0.45;;
49221;SDS011;35047;37.588;-122.048;2024-02-21T06:23:37;1.33;;;0.75;;
49221;SDS011;35047;37.588;-122.048;2024-02-21T06:26:04;2.80;;;1.08;;
49221;SDS011;35047;37.588;-122.048;2024-02-21T06:28:30;1.25;;;0.70;;
49221;SDS011;35047;37.588;-122.048;2024-02-21T06:30:57;2.07;;;0.87;;
49221;SDS011;35047;37.588;-122.048;2024-02-21T06:33:24;6.15;;;0.88;;
49221;SDS011;35047;37.588;-122.048;2024-02-21T06:35:51;4.68;;;0.98;;
49221;SDS011;35047;37.588;-122.048;2024-02-21T06:38:20;3.67;;;0.52;;
49221;SDS011;35047;37.588;-122.048;2024-02-21T06:40:47;3.85;;;1.00;;
49221;SDS011;35047;37.588;-122.048;2024-02-21T06:43:17;2.63;;;0.60;;
49221;SDS011;35047;37.588;-122.048;2024-02-21T06:45:46;3.70;;;0.77;;
49221;SDS011;35047;37.588;-122.048;2024-02-21T06:48:16;0.65;;;0.50;;
49221;SDS011;35047;37.588;-122.048;2024-02-21T06:50:43;1.65;;;0.40;;
49221;SDS011;35047;37.588;-122.048;2024-02-21T06:53:10;1.30;;;0.57;;
49221;SDS011;35047;37.588;-122.048;2024-02-21T06:55:37;1.40;;;0.47;;
49221;SDS011;35047;37.588;-122.048;2024-02-21T06:58:03;0.68;;;0.63;;
49221;SDS011;35047;37.588;-122.048;2024-02-21T07:00:30;3.17;;;0.50;;
49221;SDS011;35047;37.588;-122.048;2024-02-21T07:02:56;0.57;;;0.50;;
49221;SDS011;35047;37.588;-122.048;2024-02-21T07:05:23;3.70;;;1.27;;
49221;SDS011;35047;37.588;-122.048;2024-02-21T07:07:49;0.43;;;0.30;;
49221;SDS011;35047;37.588;-122.048;2024-02-21T07:10:16;0.50;;;0.35;;
49221;SDS011;35047;37.588;-122.048;2024-02-21T07:12:42;2.05;;;0.70;;
49221;SDS011;35047;37.588;-122.048;2024-02-21T07:15:09;0.88;;;0.50;;
49221;SDS011;35047;37.588;-122.048;2024-02-21T07:17:36;0.30;;;0.30;;
49221;SDS011;35047;37.588;-122.048;2024-02-21T07:20:02;1.73;;;0.60;;
49221;SDS011;35047;37.588;-122.048;2024-02-21T07:22:29;0.90;;;0.40;;
49221;SDS011;35047;37.588;-122.048;2024-02-21T07:24:55;1.67;;;0.50;;
49221;SDS011;35047;37.588;-122.048;2024-02-21T07:27:22;0.82;;;0.73;;
49221;SDS011;35047;37.588;-122.048;2024-02-21T07:29:53;0.32;;;0.32;;
49221;SDS011;35047;37.588;-122.048;2024-02-21T07:32:20;3.67;;;0.75;;
49221;SDS011;35047;37.588;-122.048;2024-02-21T07:34:46;3.20;;;0.75;;
49221;SDS011;35047;37.588;-122.048;2024-02-21T07:37:13;1.55;;;0.82;;
49221;SDS011;35047;37.588;-122.048;2024-02-21T07:39:40;0.40;;;0.38;;
49221;SDS011;35047;37.588;-122.048;2024-02-21T07:44:33;1.23;;;0.57;;
49221;SDS011;35047;37.588;-122.048;2024-02-21T07:47:00;0.93;;;0.60;;
49221;SDS011;35047;37.588;-122.048;2024-02-21T07:49:26;1.38;;;0.57;;
49221;SDS011;35047;37.588;-122.048;2024-02-21T07:51:52;0.82;;;0.50;;
49221;SDS011;35047;37.588;-122.048;2024-02-21T07:54:19;0.60;;;0.50;;
49221;SDS011;35047;37.588;-122.048;2024-02-21T07:56:46;0.38;;;0.38;;
49221;SDS011;35047;37.588;-122.048;2024-02-21T07:59:12;0.68;;;0.60;;
49221;SDS011;35047;37.588;-122.048;2024-02-21T08:01:39;0.65;;;0.38;;
49221;SDS011;35047;37.588;-122.048;2024-02-21T08:04:06;0.60;;;0.40;;
49221;SDS011;35047;37.588;-122.048;2024-02-21T08:06:33;0.32;;;0.30;;
49221;SDS011;35047;37.588;-122.048;2024-02-21T08:08:59;0.40;;;0.40;;
49221;SDS011;35047;37.588;-122.048;2024-02-21T08:11:26;0.95;;;0.60;;
49221;SDS011;35047;37.588;-122.048;2024-02-21T08:13:52;0.73;;;0.57;;
49221;SDS011;35047;37.588;-122.048;2024-02-21T08:16:19;0.52;;;0.45;;
49221;SDS011;35047;37.588;-122.048;2024-02-21T08:18:45;0.20;;;0.20;;
49221;SDS011;35047;37.588;-122.048;2024-02-21T08:21:12;1.80;;;0.70;;
49221;SDS011;35047;37.588;-122.048;2024-02-21T08:23:38;0.75;;;0.65;;
49221;SDS011;35047;37.588;-122.048;2024-02-21T08:26:05;3.85;;;1.05;;
49221;SDS011;35047;37.588;-122.048;2024-02-21T08:28:31;1.08;;;0.73;;
49221;SDS011;35047;37.588;-122.048;2024-02-21T08:30:58;0.40;;;0.40;;
49221;SDS011;35047;37.588;-122.048;2024-02-21T08:33:24;0.93;;;0.70;;
49221;SDS011;35047;37.588;-122.048;2024-02-21T08:35:51;0.40;;;0.40;;
49221;SDS011;35047;37.588;-122.048;2024-02-21T08:38:18;0.73;;;0.70;;
49221;SDS011;35047;37.588;-122.048;2024-02-21T08:40:44;1.35;;;0.95;;
49221;SDS011;35047;37.588;-122.048;2024-02-21T08:43:11;3.28;;;0.52;;
49221;SDS011;35047;37.588;-122.048;2024-02-21T08:45:37;0.82;;;0.65;;
49221;SDS011;35047;37.588;-122.048;2024-02-21T08:48:04;1.08;;;0.80;;
49221;SDS011;35047;37.588;-122.048;2024-02-21T08:50:31;4.22;;;0.63;;
49221;SDS011;35047;37.588;-122.048;2024-02-21T08:52:57;1.80;;;0.50;;
49221;SDS011;35047;37.588;-122.048;2024-02-21T08:55:24;0.55;;;0.43;;
49221;SDS011;35047;37.588;-122.048;2024-02-21T08:57:50;0.82;;;0.50;;
49221;SDS011;35047;37.588;-122.048;2024-02-21T09:00:17;1.42;;;0.95;;
49221;SDS011;35047;37.588;-122.048;2024-02-21T09:02:46;2.45;;;0.68;;
49221;SDS011;35047;37.588;-122.048;2024-02-21T09:05:13;0.70;;;0.50;;
49221;SDS011;35047;37.588;-122.048;2024-02-21T09:07:40;4.40;;;0.73;;
49221;SDS011;35047;37.588;-122.048;2024-02-21T09:10:06;0.85;;;0.68;;
49221;SDS011;35047;37.588;-122.048;2024-02-21T09:12:33;0.98;;;0.73;;
49221;SDS011;35047;37.588;-122.048;2024-02-21T09:15:00;0.77;;;0.55;;
49221;SDS011;35047;37.588;-122.048;2024-02-21T09:17:26;1.02;;;0.57;;
49221;SDS011;35047;37.588;-122.048;2024-02-21T09:19:54;0.77;;;0.60;;
49221;SDS011;35047;37.588;-122.048;2024-02-21T09:22:24;1.35;;;0.70;;
49221;SDS011;35047;37.588;-122.048;2024-02-21T09:24:50;1.60;;;0.93;;
49221;SDS011;35047;37.588;-122.048;2024-02-21T09:27:17;6.05;;;0.95;;
49221;SDS011;35047;37.588;-122.048;2024-02-21T09:29:44;3.30;;;0.82;;
49221;SDS011;35047;37.588;-122.048;2024-02-21T09:32:10;1.42;;;0.90;;
49221;SDS011;35047;37.588;-122.048;2024-02-21T09:34:37;1.20;;;0.85;;
49221;SDS011;35047;37.588;-122.048;2024-02-21T09:37:05;1.15;;;0.73;;
49221;SDS011;35047;37.588;-122.048;2024-02-21T09:39:31;1.88;;;1.00;;
49221;SDS011;35047;37.588;-122.048;2024-02-21T09:42:03;1.42;;;0.63;;
49221;SDS011;35047;37.588;-122.048;2024-02-21T09:44:34;1.80;;;1.15;;
49221;SDS011;35047;37.588;-122.048;2024-02-21T09:47:04;1.33;;;0.35;;
49221;SDS011;35047;37.588;-122.048;2024-02-21T09:49:35;1.85;;;0.88;;
49221;SDS011;35047;37.588;-122.048;2024-02-21T09:52:05;0.90;;;0.73;;
49221;SDS011;35047;37.588;-122.048;2024-02-21T09:54:33;0.77;;;0.50;;
49221;SDS011;35047;37.588;-122.048;2024-02-21T09:59:28;1.20;;;0.65;;
49221;SDS011;35047;37.588;-122.048;2024-02-21T10:01:56;1.08;;;0.50;;
49221;SDS011;35047;37.588;-122.048;2024-02-21T10:07:07;0.60;;;0.30;;
49221;SDS011;35047;37.588;-122.048;2024-02-21T10:10:02;5.88;;;0.50;;
49221;SDS011;35047;37.588;-122.048;2024-02-21T10:12:29;0.30;;;0.30;;
49221;SDS011;35047;37.588;-122.048;2024-02-21T10:15:05;0.60;;;0.52;;
49221;SDS011;35047;37.588;-122.048;2024-02-21T10:17:32;0.47;;;0.47;;
49221;SDS011;35047;37.588;-122.048;2024-02-21T10:20:08;0.30;;;0.30;;
49221;SDS011;35047;37.588;-122.048;2024-02-21T10:22:37;0.38;;;0.32;;
49221;SDS011;35047;37.588;-122.048;2024-02-21T10:25:11;0.30;;;0.30;;
49221;SDS011;35047;37.588;-122.048;2024-02-21T10:27:38;1.90;;;0.68;;
49221;SDS011;35047;37.588;-122.048;2024-02-21T10:30:06;1.95;;;0.43;;
49221;SDS011;35047;37.588;-122.048;2024-02-21T10:32:48;0.65;;;0.60;;
49221;SDS011;35047;37.588;-122.048;2024-02-21T10:35:24;2.78;;;0.95;;
49221;SDS011;35047;37.588;-122.048;2024-02-21T10:37:55;1.67;;;1.08;;
49221;SDS011;35047;37.588;-122.048;2024-02-21T10:40:26;2.42;;;0.88;;
49221;SDS011;35047;37.588;-122.048;2024-02-21T10:42:57;2.25;;;0.90;;
49221;SDS011;35047;37.588;-122.048;2024-02-21T10:45:31;2.35;;;0.70;;
49221;SDS011;35047;37.588;-122.048;2024-02-21T10:48:11;1.73;;;1.10;;
49221;SDS011;35047;37.588;-122.048;2024-02-21T10:50:54;0.70;;;0.70;;
49221;SDS011;35047;37.588;-122.048;2024-02-21T10:56:38;0.90;;;0.82;;
49221;SDS011;35047;37.588;-122.048;2024-02-21T10:59:06;1.13;;;0.70;;
49221;SDS011;35047;37.588;-122.048;2024-02-21T11:01:33;2.80;;;1.15;;
49221;SDS011;35047;37.588;-122.048;2024-02-21T11:04:05;1.63;;;0.65;;
49221;SDS011;35047;37.588;-122.048;2024-02-21T11:06:33;1.17;;;0.80;;
49221;SDS011;35047;37.588;-122.048;2024-02-21T11:09:02;1.20;;;0.95;;
49221;SDS011;35047;37.588;-122.048;2024-02-21T11:11:33;1.30;;;0.90;;
49221;SDS011;35047;37.588;-122.048;2024-02-21T11:14:06;0.98;;;0.80;;
49221;SDS011;35047;37.588;-122.048;2024-02-21T11:16:37;1.05;;;0.63;;
49221;SDS011;35047;37.588;-122.048;2024-02-21T11:19:10;1.27;;;0.70;;
49221;SDS011;35047;37.588;-122.048;2024-02-21T11:21:45;2.28;;;0.70;;
49221;SDS011;35047;37.588;-122.048;2024-02-21T11:24:13;1.27;;;0.70;;
49221;SDS011;35047;37.588;-122.048;2024-02-21T11:26:50;0.93;;;0.60;;
49221;SDS011;35047;37.588;-122.048;2024-02-21T11:29:22;1.13;;;0.80;;
49221;SDS011;35047;37.588;-122.048;2024-02-21T11:31:54;0.95;;;0.63;;
49221;SDS011;35047;37.588;-122.048;2024-02-21T11:34:21;0.65;;;0.65;;
49221;SDS011;35047;37.588;-122.048;2024-02-21T11:36:48;2.15;;;0.82;;
49221;SDS011;35047;37.588;-122.048;2024-02-21T11:39:23;0.30;;;0.30;;
49221;SDS011;35047;37.588;-122.048;2024-02-21T11:42:03;1.10;;;0.73;;
49221;SDS011;35047;37.588;-122.048;2024-02-21T11:44:36;0.57;;;0.50;;
49221;SDS011;35047;37.588;-122.048;2024-02-21T11:47:05;0.90;;;0.50;;
49221;SDS011;35047;37.588;-122.048;2024-02-21T11:49:35;0.47;;;0.47;;
49221;SDS011;35047;37.588;-122.048;2024-02-21T11:52:10;0.90;;;0.68;;
49221;SDS011;35047;37.588;-122.048;2024-02-21T11:54:39;5.25;;;0.80;;
49221;SDS011;35047;37.588;-122.048;2024-02-21T11:57:06;1.55;;;0.88;;
49221;SDS011;35047;37.588;-122.048;2024-02-21T11:59:33;0.80;;;0.70;;
49221;SDS011;35047;37.588;-122.048;2024-02-21T12:02:00;1.38;;;0.73;;
49221;SDS011;35047;37.588;-122.048;2024-02-21T12:04:30;0.90;;;0.65;;
49221;SDS011;35047;37.588;-122.048;2024-02-21T12:06:57;1.23;;;0.75;;
49221;SDS011;35047;37.588;-122.048;2024-02-21T12:09:24;0.80;;;0.50;;
49221;SDS011;35047;37.588;-122.048;2024-02-21T12:12:00;1.35;;;0.80;;
49221;SDS011;35047;37.588;-122.048;2024-02-21T12:14:29;0.93;;;0.65;;
49221;SDS011;35047;37.588;-122.048;2024-02-21T12:16:57;1.27;;;1.15;;
49221;SDS011;35047;37.588;-122.048;2024-02-21T12:19:29;1.67;;;0.95;;
49221;SDS011;35047;37.588;-122.048;2024-02-21T12:22:00;1.20;;;0.80;;
49221;SDS011;35047;37.588;-122.048;2024-02-21T12:24:30;1.30;;;0.98;;
49221;SDS011;35047;37.588;-122.048;2024-02-21T12:26:57;1.10;;;0.80;;
49221;SDS011;35047;37.588;-122.048;2024-02-21T12:29:24;3.38;;;0.57;;
49221;SDS011;35047;37.588;-122.048;2024-02-21T12:31:51;2.05;;;1.10;;
49221;SDS011;35047;37.588;-122.048;2024-02-21T12:34:19;1.25;;;0.82;;
49221;SDS011;35047;37.588;-122.048;2024-02-21T12:36:47;1.50;;;0.82;;
49221;SDS011;35047;37.588;-122.048;2024-02-21T12:39:14;0.90;;;0.80;;
49221;SDS011;35047;37.588;-122.048;2024-02-21T12:41:41;1.00;;;0.77;;
49221;SDS011;35047;37.588;-122.048;2024-02-21T12:44:09;4.13;;;0.93;;
49221;SDS011;35047;37.588;-122.048;2024-02-21T12:46:37;1.17;;;0.93;;
49221;SDS011;35047;37.588;-122.048;2024-02-21T12:49:05;0.65;;;0.57;;
49221;SDS011;35047;37.588;-122.048;2024-02-21T12:51:35;1.83;;;1.00;;
49221;SDS011;35047;37.588;-122.048;2024-02-21T12:54:01;2.33;;;0.90;;
49221;SDS011;35047;37.588;-122.048;2024-02-21T12:56:28;1.33;;;0.82;;
49221;SDS011;35047;37.588;-122.048;2024-02-21T12:58:58;0.85;;;0.73;;
49221;SDS011;35047;37.588;-122.048;2024-02-21T13:01:25;1.10;;;0.85;;
49221;SDS011;35047;37.588;-122.048;2024-02-21T13:03:52;0.82;;;0.80;;
49221;SDS011;35047;37.588;-122.048;2024-02-21T13:06:19;1.98;;;0.75;;
49221;SDS011;35047;37.588;-122.048;2024-02-21T13:08:46;2.13;;;0.52;;
49221;SDS011;35047;37.588;-122.048;2024-02-21T13:11:12;0.88;;;0.65;;
49221;SDS011;35047;37.588;-122.048;2024-02-21T13:13:39;3.13;;;0.70;;
49221;SDS011;35047;37.588;-122.048;2024-02-21T13:16:06;0.90;;;0.65;;
49221;SDS011;35047;37.588;-122.048;2024-02-21T13:18:34;1.83;;;0.75;;
49221;SDS011;35047;37.588;-122.048;2024-02-21T13:21:03;1.23;;;0.80;;
49221;SDS011;35047;37.588;-122.048;2024-02-21T13:23:31;3.63;;;1.00;;
49221;SDS011;35047;37.588;-122.048;2024-02-21T13:25:57;0.80;;;0.60;;
49221;SDS011;35047;37.588;-122.048;2024-02-21T13:28:24;0.90;;;0.65;;
49221;SDS011;35047;37.588;-122.048;2024-02-21T13:30:50;1.40;;;0.60;;
49221;SDS011;35047;37.588;-122.048;2024-02-21T13:33:17;1.33;;;0.73;;
49221;SDS011;35047;37.588;-122.048;2024-02-21T13:35:44;0.93;;;0.83;;
49221;SDS011;35047;37.588;-122.048;2024-02-21T13:38:10;1.02;;;0.65;;
49221;SDS011;35047;37.588;-122.048;2024-02-21T13:40:37;1.45;;;0.60;;
49221;SDS011;35047;37.588;-122.048;2024-02-21T13:43:03;0.77;;;0.60;;
49221;SDS011;35047;37.588;-122.048;2024-02-21T13:45:30;1.13;;;1.00;;
49221;SDS011;35047;37.588;-122.048;2024-02-21T13:47:57;3.60;;;1.13;;
49221;SDS011;35047;37.588;-122.048;2024-02-21T13:50:29;2.28;;;1.35;;
49221;SDS011;35047;37.588;-122.048;2024-02-21T13:53:07;1.27;;;0.60;;
49221;SDS011;35047;37.588;-122.048;2024-02-21T13:58:01;1.15;;;0.88;;
49221;SDS011;35047;37.588;-122.048;2024-02-21T14:00:28;1.75;;;0.80;;
49221;SDS011;35047;37.588;-122.048;2024-02-21T14:02:55;1.67;;;0.70;;
49221;SDS011;35047;37.588;-122.048;2024-02-21T14:05:23;1.30;;;0.70;;
49221;SDS011;35047;37.588;-122.048;2024-02-21T14:07:49;1.02;;;0.70;;
49221;SDS011;35047;37.588;-122.048;2024-02-21T14:10:16;1.20;;;0.50;;
49221;SDS011;35047;37.588;-122.048;2024-02-21T14:12:43;1.15;;;0.80;;
49221;SDS011;35047;37.588;-122.048;2024-02-21T14:15:10;2.03;;;0.60;;
49221;SDS011;35047;37.588;-122.048;2024-02-21T14:17:36;2.22;;;0.80;;
49221;SDS011;35047;37.588;-122.048;2024-02-21T14:20:04;1.02;;;0.70;;
49221;SDS011;35047;37.588;-122.048;2024-02-21T14:22:34;0.82;;;0.52;;
49221;SDS011;35047;37.588;-122.048;2024-02-21T14:25:03;1.17;;;0.70;;
49221;SDS011;35047;37.588;-122.048;2024-02-21T14:27:32;1.40;;;0.73;;
49221;SDS011;35047;37.588;-122.048;2024-02-21T14:30:02;1.08;;;0.95;;
49221;SDS011;35047;37.588;-122.048;2024-02-21T14:32:29;7.00;;;1.70;;
49221;SDS011;35047;37.588;-122.048;2024-02-21T14:34:55;1.60;;;0.95;;
49221;SDS011;35047;37.588;-122.048;2024-02-21T14:37:21;1.00;;;0.47;;
49221;SDS011;35047;37.588;-122.048;2024-02-21T14:39:48;1.85;;;1.25;;